West Chesterfield, New Hampshire
Current Conditions -  °F | °C
As of 2:55 AM on Thursday 23 Oct 2014 (Local Time) from KEEN Reporting Station
Overcast Overcast  
Wind Chill: 43°   Ceiling: 1800
Heat Index: 48°   Visibility: 10mi
Dew Point: 39°   Wind: 13mph
Humidity: 71%   Direction: 350°N
Pressure: 29.87"   Gusts: NA
Location:  42.9°N, 72.52°W
Report Text: KEEN 230655Z AUTO 35011KT 10SM BKN018 OVC023 09/04 A2987 RMK AO1 P0022
Loading
Personal Weather Stations






























Interactive Weather Map
Tropical Storm Tracking
New forecast layout! Learn more

10-Day Weather Forecast

Advertisements
Track Severe Weather on mobile